Albany, Georgia
Current Conditions -  °F | °C
As of 3:53 PM on Thursday 23 Oct 2014 (Local Time) from KABY Reporting Station
Clear Clear  
Wind Chill: 74°   Ceiling: Unl
Heat Index: 74°   Visibility: 10mi
Dew Point: 43°   Wind: 5mph
Humidity: 33%   Direction: NA
Pressure: 30.04"   Gusts: NA
Location:  31.58°N, 84.15°W
Report Text: KABY 231953Z VRB04KT 10SM CLR 23/06 A3004 RMK AO2 SLP172 T02330061 $
Loading
Personal Weather Stations






























Interactive Weather Map
Tropical Storm Tracking
New forecast layout! Learn more

10-Day Weather Forecast

Advertisements
Track Severe Weather on mobile